createdAt,value
2018-01-12T00:05:43.394Z,100024.53
2018-01-12T00:11:46.873Z,100025.27
2018-01-12T00:17:50.358Z,100026.14
2018-01-12T00:23:54.633Z,100030.25
2018-01-12T00:29:59.010Z,100042.16
2018-01-12T00:36:03.270Z,100039.34
2018-01-12T00:42:07.472Z,100044.88
2018-01-12T00:48:10.925Z,100048.30
2018-01-12T00:54:14.405Z,100050.45
2018-01-12T01:00:17.894Z,100049.88
2018-01-12T01:06:22.196Z,100060.63
2018-01-12T01:12:25.708Z,100070.25
2018-01-12T01:18:31.065Z,100073.73
2018-01-12T01:24:34.542Z,100082.26
2018-01-12T01:30:38.136Z,100086.06
2018-01-12T01:36:41.637Z,100100.31
2018-01-12T01:42:45.089Z,100102.55
2018-01-12T01:48:48.550Z,100106.27
2018-01-12T01:54:51.997Z,100103.97
2018-01-12T02:00:55.899Z,100107.38
2018-01-12T02:06:59.400Z,100120.23
2018-01-12T02:13:02.865Z,100120.89
2018-01-12T02:19:07.247Z,100128.20
2018-01-12T02:25:10.754Z,100129.27
2018-01-12T02:31:14.202Z,100130.95
2018-01-12T02:37:18.455Z,100138.89
2018-01-12T02:43:23.785Z,100147.91
2018-01-12T02:49:27.299Z,100154.84
2018-01-12T02:55:30.750Z,100147.66
2018-01-12T03:01:34.375Z,100156.05
2018-01-12T03:07:37.839Z,100163.37
2018-01-12T03:13:41.314Z,100162.81
2018-01-12T03:19:44.786Z,100161.38
2018-01-12T03:25:49.023Z,100161.19
2018-01-12T03:31:52.525Z,100162.94
2018-01-12T03:37:56.019Z,100157.28
2018-01-12T03:43:59.501Z,100159.43
2018-01-12T03:50:02.993Z,100155.66
2018-01-12T03:56:06.636Z,100167.41
2018-01-12T04:02:10.862Z,100169.26
2018-01-12T04:08:14.594Z,100178.03
2018-01-12T04:14:18.981Z,100172.14
2018-01-12T04:20:22.447Z,100169.77
2018-01-12T04:26:25.907Z,100171.09
2018-01-12T04:32:29.599Z,100173.26
2018-01-12T04:38:33.839Z,100183.33
2018-01-12T04:44:37.653Z,100179.77
2018-01-12T04:50:41.129Z,100178.14
2018-01-12T04:56:44.647Z,100187.31
2018-01-12T05:02:48.958Z,100189.75
2018-01-12T05:08:52.453Z,100204.39
2018-01-12T05:14:56.068Z,100211.52
2018-01-12T05:20:59.757Z,100211.48
2018-01-12T05:27:04.561Z,100215.77
2018-01-12T05:33:08.861Z,100218.68
2018-01-12T05:39:13.103Z,100227.02
2018-01-12T05:45:17.365Z,100228.55
2018-01-12T05:51:21.652Z,100235.17
2018-01-12T05:57:26.893Z,100247.63
2018-01-12T06:03:48.263Z,100245.37
2018-01-12T06:09:51.818Z,100251.65
2018-01-12T06:15:55.291Z,100259.60
2018-01-12T06:21:58.856Z,100260.19
2018-01-12T06:28:02.305Z,100266.98
2018-01-12T06:34:05.774Z,100271.17
2018-01-12T06:40:09.250Z,100274.36
2018-01-12T06:46:13.491Z,100283.39
2018-01-12T06:52:16.965Z,100278.19
2018-01-12T06:58:20.572Z,100274.95
2018-01-12T07:04:24.161Z,100278.91
2018-01-12T07:10:28.319Z,100281.33
2018-01-12T07:16:31.797Z,100283.91
2018-01-12T07:29:17.829Z,100283.70
2018-01-12T07:35:21.343Z,100294.25
2018-01-12T07:41:24.956Z,100291.92
2018-01-12T07:47:28.679Z,100300.48
2018-01-12T07:53:32.962Z,100298.70
2018-01-12T07:59:36.451Z,100304.20
2018-01-12T08:05:39.931Z,100310.61
2018-01-12T08:11:43.531Z,100325.64
2018-01-12T08:17:47.018Z,100328.36
2018-01-12T08:23:50.515Z,100339.09
2018-01-12T08:29:54.278Z,100345.06
2018-01-12T08:35:58.105Z,100349.59
2018-01-12T08:42:01.607Z,100353.73
2018-01-12T08:48:05.918Z,100358.80
2018-01-12T08:54:09.407Z,100369.31
2018-01-12T09:00:12.888Z,100382.41
2018-01-12T09:06:17.135Z,100384.34
2018-01-12T09:12:21.385Z,100394.06
2018-01-12T09:18:32.022Z,100399.25
2018-01-12T09:24:35.531Z,100407.59
2018-01-12T09:30:39.147Z,100407.31
2018-01-12T09:36:42.743Z,100411.98
2018-01-12T09:42:46.295Z,100412.91
2018-01-12T09:48:52.213Z,100419.84
2018-01-12T09:54:55.861Z,100417.01
2018-01-12T10:01:05.477Z,100430.13
2018-01-12T10:07:19.629Z,100428.92
2018-01-12T10:13:23.201Z,100439.02
2018-01-12T10:19:26.703Z,100442.24
2018-01-12T10:25:30.297Z,100439.50
2018-01-12T10:31:51.805Z,100432.81
2018-01-12T10:37:55.842Z,100432.50
2018-01-12T10:43:59.565Z,100436.64
2018-01-12T10:50:29.590Z,100444.16
2018-01-12T10:56:33.850Z,100441.50
2018-01-12T11:02:38.153Z,100448.33
2018-01-12T11:08:41.727Z,100451.03
2018-01-12T11:14:45.242Z,100454.45
2018-01-12T11:20:49.493Z,100449.25
2018-01-12T11:26:53.137Z,100445.75
2018-01-12T11:32:56.753Z,100443.05
2018-01-12T11:39:00.286Z,100452.91
2018-01-12T11:45:04.513Z,100445.17
2018-01-12T11:51:08.005Z,100449.08
2018-01-12T11:57:12.274Z,100447.28
2018-01-12T12:03:16.519Z,100440.02
2018-01-12T12:09:19.985Z,100447.70
2018-01-12T12:15:23.476Z,100442.86
2018-01-12T12:21:27.218Z,100443.02
2018-01-12T12:27:30.746Z,100438.81
2018-01-12T12:33:34.222Z,100436.45
2018-01-12T12:39:38.496Z,100436.45
2018-01-12T12:45:42.105Z,100436.11
2018-01-12T12:51:45.614Z,100432.61
2018-01-12T12:57:49.118Z,100434.88
2018-01-12T13:03:52.631Z,100421.41
2018-01-12T13:09:56.370Z,100417.35
2018-01-12T13:16:01.442Z,100413.21
2018-01-12T13:22:04.954Z,100409.11
2018-01-12T13:28:08.711Z,100412.27
2018-01-12T13:34:12.161Z,100419.17
2018-01-12T13:40:16.426Z,100418.08
2018-01-12T13:46:19.915Z,100430.23
2018-01-12T13:52:23.389Z,100432.90
2018-01-12T13:58:27.327Z,100444.52
2018-01-12T14:04:30.862Z,100452.99
2018-01-12T14:10:34.367Z,100458.88
2018-01-12T14:16:37.951Z,100461.05
2018-01-12T14:22:42.213Z,100470.05
2018-01-12T14:28:46.610Z,100481.25
2018-01-12T14:34:50.212Z,100481.80
2018-01-12T14:40:53.694Z,100481.50
2018-01-12T14:46:58.099Z,100483.89
2018-01-12T14:53:01.588Z,100487.98
2018-01-12T14:59:05.169Z,100488.98
2018-01-12T15:05:08.677Z,100487.30
2018-01-12T15:11:12.312Z,100494.65
2018-01-12T15:17:15.783Z,100502.56
2018-01-12T15:23:19.277Z,100498.75
2018-01-12T15:29:22.853Z,100504.22
2018-01-12T15:35:26.524Z,100505.25
2018-01-12T15:41:30.809Z,100498.08
2018-01-12T15:47:34.300Z,100503.30
2018-01-12T15:53:37.792Z,100505.83
2018-01-12T15:59:41.421Z,100506.36
2018-01-12T16:05:44.885Z,100498.88
2018-01-12T16:11:48.346Z,100496.12
2018-01-12T16:17:51.840Z,100503.14
2018-01-12T16:23:55.360Z,100509.38
2018-01-12T16:29:58.857Z,100510.15
2018-01-12T16:36:02.623Z,100519.92
2018-01-12T16:42:06.137Z,100517.38
2018-01-12T16:48:10.529Z,100517.56
2018-01-12T16:54:14.107Z,100515.86
2018-01-12T17:00:17.596Z,100522.02
2018-01-12T17:06:21.220Z,100526.14
2018-01-12T17:12:24.942Z,100521.29
2018-01-12T17:18:28.566Z,100528.45
2018-01-12T17:24:32.832Z,100533.91
2018-01-12T17:30:36.323Z,100528.48
2018-01-12T17:36:40.591Z,100527.28
2018-01-12T17:42:44.866Z,100526.53
2018-01-12T17:48:49.130Z,100527.14
2018-01-12T17:54:53.437Z,100531.33
2018-01-12T18:00:56.927Z,100529.41
2018-01-12T18:07:00.431Z,100545.16
2018-01-12T18:13:03.904Z,100547.31
2018-01-12T18:19:07.390Z,100541.34
2018-01-12T18:25:11.182Z,100543.39
2018-01-12T18:31:15.447Z,100549.13
2018-01-12T18:37:18.939Z,100546.47
2018-01-12T18:43:22.424Z,100555.02
2018-01-12T18:49:26.019Z,100560.78
2018-01-12T18:55:29.738Z,100567.66
2018-01-12T19:01:34.085Z,100572.27
2018-01-12T19:07:37.585Z,100576.58
2018-01-12T19:13:41.139Z,100582.13
2018-01-12T19:19:44.619Z,100584.40
2018-01-12T19:25:48.859Z,100582.80
2018-01-12T19:31:52.398Z,100583.41
2018-01-12T19:37:56.093Z,100588.42
2018-01-12T19:43:59.637Z,100592.43
2018-01-12T19:50:03.456Z,100594.70
2018-01-12T19:56:06.992Z,100599.84
2018-01-12T20:02:10.450Z,100606.24
2018-01-12T20:08:13.998Z,100604.25
2018-01-12T20:14:17.506Z,100605.52
2018-01-12T20:20:21.005Z,100606.95
2018-01-12T20:26:24.923Z,100599.67
2018-01-12T20:32:28.534Z,100607.13
2018-01-12T20:38:32.007Z,100603.25
2018-01-12T20:44:35.486Z,100610.97
2018-01-12T20:50:38.990Z,100600.13
2018-01-12T20:56:42.478Z,100608.59
2018-01-12T21:02:45.958Z,100602.23
2018-01-12T21:08:49.429Z,100606.11
2018-01-12T21:14:53.740Z,100603.02
2018-01-12T21:20:58.158Z,100601.56
2018-01-12T21:27:01.741Z,100599.95
2018-01-12T21:33:06.012Z,100598.77
2018-01-12T21:39:10.286Z,100600.38
2018-01-12T21:45:14.558Z,100609.25
2018-01-12T21:51:18.832Z,100606.59
2018-01-12T21:57:23.059Z,100608.48
2018-01-12T22:03:27.225Z,100610.33
2018-01-12T22:09:30.736Z,100612.52
2018-01-12T22:15:34.225Z,100609.91
2018-01-12T22:21:37.706Z,100615.75
2018-01-12T22:27:41.301Z,100608.98
2018-01-12T22:33:44.993Z,100617.81
2018-01-12T22:39:48.479Z,100620.50
2018-01-12T22:45:52.745Z,100623.03
2018-01-12T22:51:56.404Z,100626.97
2018-01-12T22:57:59.996Z,100624.31
2018-01-12T23:04:03.459Z,100622.08
2018-01-12T23:10:06.935Z,100618.52
2018-01-12T23:16:11.331Z,100613.34
2018-01-12T23:22:14.834Z,100615.55
2018-01-12T23:28:18.396Z,100610.35
2018-01-12T23:34:21.888Z,100611.77
2018-01-12T23:40:26.153Z,100614.06
2018-01-12T23:46:29.652Z,100617.88
2018-01-12T23:52:33.922Z,100611.90
2018-01-12T23:58:38.139Z,100608.58
